sensor_id;sensor_type;location;lat;lon;timestamp;temperature;humidity
31967;DHT22;18496;52.042;6.812;2023-04-03T00:01:24;10.40;92.60
31967;DHT22;18496;52.042;6.812;2023-04-03T00:03:27;10.30;92.00
31967;DHT22;18496;52.042;6.812;2023-04-03T00:05:31;10.30;92.00
31967;DHT22;18496;52.042;6.812;2023-04-03T00:07:35;10.30;93.70
31967;DHT22;18496;52.042;6.812;2023-04-03T00:09:38;10.40;92.70
31967;DHT22;18496;52.042;6.812;2023-04-03T00:11:42;10.30;92.70
31967;DHT22;18496;52.042;6.812;2023-04-03T00:13:45;10.30;92.80
31967;DHT22;18496;52.042;6.812;2023-04-03T00:15:49;10.20;92.30
31967;DHT22;18496;52.042;6.812;2023-04-03T00:17:53;10.20;92.30
31967;DHT22;18496;52.042;6.812;2023-04-03T00:19:56;10.20;92.70
31967;DHT22;18496;52.042;6.812;2023-04-03T00:22:00;10.20;94.00
31967;DHT22;18496;52.042;6.812;2023-04-03T00:24:04;10.20;92.70
31967;DHT22;18496;52.042;6.812;2023-04-03T00:26:08;10.20;92.70
31967;DHT22;18496;52.042;6.812;2023-04-03T00:28:11;10.10;92.70
31967;DHT22;18496;52.042;6.812;2023-04-03T00:30:16;10.00;93.40
31967;DHT22;18496;52.042;6.812;2023-04-03T00:32:20;10.00;93.70
31967;DHT22;18496;52.042;6.812;2023-04-03T00:34:24;10.00;93.30
31967;DHT22;18496;52.042;6.812;2023-04-03T00:36:28;10.00;93.50
31967;DHT22;18496;52.042;6.812;2023-04-03T00:38:32;10.10;93.50
31967;DHT22;18496;52.042;6.812;2023-04-03T00:40:37;10.00;93.00
31967;DHT22;18496;52.042;6.812;2023-04-03T00:42:41;10.00;93.50
31967;DHT22;18496;52.042;6.812;2023-04-03T00:46:50;9.80;93.90
31967;DHT22;18496;52.042;6.812;2023-04-03T00:48:53;9.80;93.60
31967;DHT22;18496;52.042;6.812;2023-04-03T00:50:58;9.80;93.70
31967;DHT22;18496;52.042;6.812;2023-04-03T00:53:02;9.80;93.60
31967;DHT22;18496;52.042;6.812;2023-04-03T00:55:07;9.80;93.80
31967;DHT22;18496;52.042;6.812;2023-04-03T00:57:11;9.70;93.40
31967;DHT22;18496;52.042;6.812;2023-04-03T00:59:20;9.70;93.70
31967;DHT22;18496;52.042;6.812;2023-04-03T01:01:27;9.60;93.90
31967;DHT22;18496;52.042;6.812;2023-04-03T01:03:31;9.60;93.90
31967;DHT22;18496;52.042;6.812;2023-04-03T01:05:36;9.50;93.80
31967;DHT22;18496;52.042;6.812;2023-04-03T01:07:39;9.40;94.10
31967;DHT22;18496;52.042;6.812;2023-04-03T01:09:44;9.40;93.90
31967;DHT22;18496;52.042;6.812;2023-04-03T01:11:48;9.40;94.10
31967;DHT22;18496;52.042;6.812;2023-04-03T01:13:51;9.30;94.00
31967;DHT22;18496;52.042;6.812;2023-04-03T01:15:55;9.30;94.10
31967;DHT22;18496;52.042;6.812;2023-04-03T01:17:59;9.20;94.20
31967;DHT22;18496;52.042;6.812;2023-04-03T01:22:19;9.20;94.20
31967;DHT22;18496;52.042;6.812;2023-04-03T01:26:37;9.10;94.70
31967;DHT22;18496;52.042;6.812;2023-04-03T01:28:41;9.10;94.60
31967;DHT22;18496;52.042;6.812;2023-04-03T01:32:54;9.10;94.60
31967;DHT22;18496;52.042;6.812;2023-04-03T01:34:58;9.00;94.80
31967;DHT22;18496;52.042;6.812;2023-04-03T01:37:01;9.00;94.70
31967;DHT22;18496;52.042;6.812;2023-04-03T01:39:05;9.00;94.60
31967;DHT22;18496;52.042;6.812;2023-04-03T01:41:09;8.90;94.70
31967;DHT22;18496;52.042;6.812;2023-04-03T01:43:13;8.90;94.80
31967;DHT22;18496;52.042;6.812;2023-04-03T01:45:17;8.90;95.10
31967;DHT22;18496;52.042;6.812;2023-04-03T01:47:21;8.90;94.80
31967;DHT22;18496;52.042;6.812;2023-04-03T01:49:25;8.90;94.70
31967;DHT22;18496;52.042;6.812;2023-04-03T01:51:29;8.80;94.70
31967;DHT22;18496;52.042;6.812;2023-04-03T01:53:32;8.80;94.90
31967;DHT22;18496;52.042;6.812;2023-04-03T01:55:36;8.80;95.00
31967;DHT22;18496;52.042;6.812;2023-04-03T01:57:40;8.70;95.00
31967;DHT22;18496;52.042;6.812;2023-04-03T01:59:45;8.70;95.00
31967;DHT22;18496;52.042;6.812;2023-04-03T02:01:49;8.70;95.00
31967;DHT22;18496;52.042;6.812;2023-04-03T02:03:52;8.70;95.40
31967;DHT22;18496;52.042;6.812;2023-04-03T02:05:56;8.60;95.00
31967;DHT22;18496;52.042;6.812;2023-04-03T02:08:00;8.60;95.20
31967;DHT22;18496;52.042;6.812;2023-04-03T02:10:04;8.60;95.20
31967;DHT22;18496;52.042;6.812;2023-04-03T02:12:08;8.60;95.20
31967;DHT22;18496;52.042;6.812;2023-04-03T02:14:12;8.60;95.30
31967;DHT22;18496;52.042;6.812;2023-04-03T02:16:16;8.60;95.10
31967;DHT22;18496;52.042;6.812;2023-04-03T02:18:19;8.50;95.10
31967;DHT22;18496;52.042;6.812;2023-04-03T02:20:23;8.50;95.20
31967;DHT22;18496;52.042;6.812;2023-04-03T02:22:27;8.50;95.10
31967;DHT22;18496;52.042;6.812;2023-04-03T02:24:30;8.40;95.20
31967;DHT22;18496;52.042;6.812;2023-04-03T02:26:35;8.30;95.30
31967;DHT22;18496;52.042;6.812;2023-04-03T02:28:39;8.30;95.30
31967;DHT22;18496;52.042;6.812;2023-04-03T02:30:44;8.30;95.80
31967;DHT22;18496;52.042;6.812;2023-04-03T02:32:48;8.30;95.30
31967;DHT22;18496;52.042;6.812;2023-04-03T02:34:51;8.30;95.30
31967;DHT22;18496;52.042;6.812;2023-04-03T02:36:55;8.20;95.30
31967;DHT22;18496;52.042;6.812;2023-04-03T02:38:59;8.20;95.40
31967;DHT22;18496;52.042;6.812;2023-04-03T02:41:03;8.20;95.30
31967;DHT22;18496;52.042;6.812;2023-04-03T02:43:08;8.10;95.30
31967;DHT22;18496;52.042;6.812;2023-04-03T02:45:13;8.10;95.30
31967;DHT22;18496;52.042;6.812;2023-04-03T02:47:19;8.10;95.30
31967;DHT22;18496;52.042;6.812;2023-04-03T02:49:22;8.10;95.20
31967;DHT22;18496;52.042;6.812;2023-04-03T02:51:27;8.00;95.50
31967;DHT22;18496;52.042;6.812;2023-04-03T02:53:31;8.00;95.60
31967;DHT22;18496;52.042;6.812;2023-04-03T02:55:37;7.90;95.50
31967;DHT22;18496;52.042;6.812;2023-04-03T02:57:40;7.90;95.80
31967;DHT22;18496;52.042;6.812;2023-04-03T02:59:44;7.80;95.80
31967;DHT22;18496;52.042;6.812;2023-04-03T03:01:48;7.90;96.10
31967;DHT22;18496;52.042;6.812;2023-04-03T03:03:52;7.90;95.90
31967;DHT22;18496;52.042;6.812;2023-04-03T03:06:06;7.80;95.90
31967;DHT22;18496;52.042;6.812;2023-04-03T03:08:10;7.80;96.00
31967;DHT22;18496;52.042;6.812;2023-04-03T03:10:14;7.80;96.10
31967;DHT22;18496;52.042;6.812;2023-04-03T03:12:18;7.80;96.10
31967;DHT22;18496;52.042;6.812;2023-04-03T03:14:24;7.80;96.20
31967;DHT22;18496;52.042;6.812;2023-04-03T03:16:28;7.80;96.10
31967;DHT22;18496;52.042;6.812;2023-04-03T03:18:33;7.80;96.10
31967;DHT22;18496;52.042;6.812;2023-04-03T03:20:38;7.80;96.20
31967;DHT22;18496;52.042;6.812;2023-04-03T03:22:41;7.80;96.70
31967;DHT22;18496;52.042;6.812;2023-04-03T03:24:45;7.80;96.80
31967;DHT22;18496;52.042;6.812;2023-04-03T03:26:49;7.80;96.10
31967;DHT22;18496;52.042;6.812;2023-04-03T03:28:53;7.80;96.00
31967;DHT22;18496;52.042;6.812;2023-04-03T03:30:58;7.70;95.90
31967;DHT22;18496;52.042;6.812;2023-04-03T03:33:02;7.70;96.00
31967;DHT22;18496;52.042;6.812;2023-04-03T03:35:06;7.70;96.00
31967;DHT22;18496;52.042;6.812;2023-04-03T03:37:10;7.70;96.50
31967;DHT22;18496;52.042;6.812;2023-04-03T03:39:14;7.70;95.90
31967;DHT22;18496;52.042;6.812;2023-04-03T03:41:18;7.70;95.90
31967;DHT22;18496;52.042;6.812;2023-04-03T03:43:22;7.60;95.70
31967;DHT22;18496;52.042;6.812;2023-04-03T03:45:27;7.50;95.80
31967;DHT22;18496;52.042;6.812;2023-04-03T03:47:31;7.50;95.80
31967;DHT22;18496;52.042;6.812;2023-04-03T03:49:34;7.50;95.80
31967;DHT22;18496;52.042;6.812;2023-04-03T03:51:39;7.50;95.90
31967;DHT22;18496;52.042;6.812;2023-04-03T03:53:43;7.40;95.60
31967;DHT22;18496;52.042;6.812;2023-04-03T03:55:51;7.40;95.80
31967;DHT22;18496;52.042;6.812;2023-04-03T03:57:57;7.30;95.90
31967;DHT22;18496;52.042;6.812;2023-04-03T04:00:00;7.30;95.80
31967;DHT22;18496;52.042;6.812;2023-04-03T04:02:04;7.30;95.80
31967;DHT22;18496;52.042;6.812;2023-04-03T04:04:08;7.30;95.80
31967;DHT22;18496;52.042;6.812;2023-04-03T04:06:11;7.20;95.80
31967;DHT22;18496;52.042;6.812;2023-04-03T04:08:15;7.20;95.80
31967;DHT22;18496;52.042;6.812;2023-04-03T04:10:20;7.20;95.60
31967;DHT22;18496;52.042;6.812;2023-04-03T04:12:24;7.20;95.90
31967;DHT22;18496;52.042;6.812;2023-04-03T04:14:28;7.10;95.90
31967;DHT22;18496;52.042;6.812;2023-04-03T04:16:33;7.00;95.80
31967;DHT22;18496;52.042;6.812;2023-04-03T04:18:42;7.00;95.90
31967;DHT22;18496;52.042;6.812;2023-04-03T04:20:46;6.90;96.00
31967;DHT22;18496;52.042;6.812;2023-04-03T04:22:50;6.90;96.00
31967;DHT22;18496;52.042;6.812;2023-04-03T04:24:56;6.80;95.90
31967;DHT22;18496;52.042;6.812;2023-04-03T04:27:00;6.80;95.90
31967;DHT22;18496;52.042;6.812;2023-04-03T04:29:04;6.80;95.90
31967;DHT22;18496;52.042;6.812;2023-04-03T04:31:11;6.80;96.00
31967;DHT22;18496;52.042;6.812;2023-04-03T04:33:14;6.80;96.10
31967;DHT22;18496;52.042;6.812;2023-04-03T04:35:18;6.80;95.90
31967;DHT22;18496;52.042;6.812;2023-04-03T04:37:25;6.80;95.90
31967;DHT22;18496;52.042;6.812;2023-04-03T04:39:29;6.80;96.00
31967;DHT22;18496;52.042;6.812;2023-04-03T04:41:35;6.80;96.00
31967;DHT22;18496;52.042;6.812;2023-04-03T04:43:41;6.80;96.40
31967;DHT22;18496;52.042;6.812;2023-04-03T04:45:46;6.80;96.00
31967;DHT22;18496;52.042;6.812;2023-04-03T04:47:51;6.80;96.20
31967;DHT22;18496;52.042;6.812;2023-04-03T04:49:56;6.80;96.00
31967;DHT22;18496;52.042;6.812;2023-04-03T04:52:00;6.80;96.00
31967;DHT22;18496;52.042;6.812;2023-04-03T04:54:07;6.70;96.10
31967;DHT22;18496;52.042;6.812;2023-04-03T04:56:11;6.70;96.20
31967;DHT22;18496;52.042;6.812;2023-04-03T04:58:16;6.70;96.10
31967;DHT22;18496;52.042;6.812;2023-04-03T05:00:20;6.70;96.20
31967;DHT22;18496;52.042;6.812;2023-04-03T05:02:24;6.60;96.20
31967;DHT22;18496;52.042;6.812;2023-04-03T05:04:28;6.60;96.40
31967;DHT22;18496;52.042;6.812;2023-04-03T05:06:38;6.60;96.50
31967;DHT22;18496;52.042;6.812;2023-04-03T05:08:47;6.70;96.50
31967;DHT22;18496;52.042;6.812;2023-04-03T05:10:51;6.70;96.20
31967;DHT22;18496;52.042;6.812;2023-04-03T05:12:55;6.70;96.20
31967;DHT22;18496;52.042;6.812;2023-04-03T05:14:59;6.70;96.80
31967;DHT22;18496;52.042;6.812;2023-04-03T05:17:04;6.70;96.30
31967;DHT22;18496;52.042;6.812;2023-04-03T05:19:11;6.70;96.20
31967;DHT22;18496;52.042;6.812;2023-04-03T05:21:16;6.60;96.70
31967;DHT22;18496;52.042;6.812;2023-04-03T05:23:22;6.60;96.20
31967;DHT22;18496;52.042;6.812;2023-04-03T05:25:26;6.60;97.20
31967;DHT22;18496;52.042;6.812;2023-04-03T05:27:30;6.60;96.60
31967;DHT22;18496;52.042;6.812;2023-04-03T05:29:35;6.60;96.50
31967;DHT22;18496;52.042;6.812;2023-04-03T05:31:40;6.70;97.00
31967;DHT22;18496;52.042;6.812;2023-04-03T05:33:46;6.70;96.40
31967;DHT22;18496;52.042;6.812;2023-04-03T05:35:54;6.70;97.40
31967;DHT22;18496;52.042;6.812;2023-04-03T05:38:02;6.70;96.80
31967;DHT22;18496;52.042;6.812;2023-04-03T05:40:07;6.70;96.50
31967;DHT22;18496;52.042;6.812;2023-04-03T05:42:12;6.70;97.50
31967;DHT22;18496;52.042;6.812;2023-04-03T05:44:17;6.80;97.60
31967;DHT22;18496;52.042;6.812;2023-04-03T05:46:23;6.80;96.80
31967;DHT22;18496;52.042;6.812;2023-04-03T05:48:31;6.80;97.90
31967;DHT22;18496;52.042;6.812;2023-04-03T05:50:34;6.90;98.30
31967;DHT22;18496;52.042;6.812;2023-04-03T05:52:40;6.90;96.80
31967;DHT22;18496;52.042;6.812;2023-04-03T05:54:45;6.90;97.00
31967;DHT22;18496;52.042;6.812;2023-04-03T05:56:55;6.90;97.10
31967;DHT22;18496;52.042;6.812;2023-04-03T05:59:00;6.80;96.70
31967;DHT22;18496;52.042;6.812;2023-04-03T06:01:04;6.80;97.10
31967;DHT22;18496;52.042;6.812;2023-04-03T06:03:09;6.80;96.90
31967;DHT22;18496;52.042;6.812;2023-04-03T06:05:13;6.80;98.00
31967;DHT22;18496;52.042;6.812;2023-04-03T06:07:19;6.90;97.00
31967;DHT22;18496;52.042;6.812;2023-04-03T06:09:26;6.90;97.70
31967;DHT22;18496;52.042;6.812;2023-04-03T06:11:32;6.90;97.60
31967;DHT22;18496;52.042;6.812;2023-04-03T06:13:35;6.90;97.10
31967;DHT22;18496;52.042;6.812;2023-04-03T06:15:39;6.90;97.10
31967;DHT22;18496;52.042;6.812;2023-04-03T06:17:46;6.90;96.80
31967;DHT22;18496;52.042;6.812;2023-04-03T06:19:50;6.90;97.20
31967;DHT22;18496;52.042;6.812;2023-04-03T06:21:53;6.90;98.70
31967;DHT22;18496;52.042;6.812;2023-04-03T06:23:57;7.00;97.50
31967;DHT22;18496;52.042;6.812;2023-04-03T06:26:01;7.10;97.40
31967;DHT22;18496;52.042;6.812;2023-04-03T06:28:05;7.10;97.20
31967;DHT22;18496;52.042;6.812;2023-04-03T06:30:09;7.10;96.50
31967;DHT22;18496;52.042;6.812;2023-04-03T06:32:12;7.10;96.80
31967;DHT22;18496;52.042;6.812;2023-04-03T06:34:16;7.10;96.40
31967;DHT22;18496;52.042;6.812;2023-04-03T06:36:21;7.10;97.50
31967;DHT22;18496;52.042;6.812;2023-04-03T06:38:25;7.20;97.70
31967;DHT22;18496;52.042;6.812;2023-04-03T06:40:28;7.20;98.10
31967;DHT22;18496;52.042;6.812;2023-04-03T06:42:32;7.20;97.80
31967;DHT22;18496;52.042;6.812;2023-04-03T06:44:43;7.30;97.60
31967;DHT22;18496;52.042;6.812;2023-04-03T06:46:47;7.30;96.80
31967;DHT22;18496;52.042;6.812;2023-04-03T06:48:52;7.30;97.20
31967;DHT22;18496;52.042;6.812;2023-04-03T06:50:56;7.30;97.10
31967;DHT22;18496;52.042;6.812;2023-04-03T06:52:59;7.20;96.80
31967;DHT22;18496;52.042;6.812;2023-04-03T06:55:04;7.20;96.30
31967;DHT22;18496;52.042;6.812;2023-04-03T06:57:08;7.10;97.40
31967;DHT22;18496;52.042;6.812;2023-04-03T06:59:12;7.00;96.80
31967;DHT22;18496;52.042;6.812;2023-04-03T07:01:17;7.00;96.70
31967;DHT22;18496;52.042;6.812;2023-04-03T07:03:22;7.10;97.20
31967;DHT22;18496;52.042;6.812;2023-04-03T07:05:25;7.10;96.60
31967;DHT22;18496;52.042;6.812;2023-04-03T07:07:30;7.10;96.90
31967;DHT22;18496;52.042;6.812;2023-04-03T07:09:34;7.10;96.70
31967;DHT22;18496;52.042;6.812;2023-04-03T07:11:37;7.10;97.20
31967;DHT22;18496;52.042;6.812;2023-04-03T07:15:47;7.20;96.30
31967;DHT22;18496;52.042;6.812;2023-04-03T07:17:51;7.10;95.60
31967;DHT22;18496;52.042;6.812;2023-04-03T07:19:55;7.10;95.90
31967;DHT22;18496;52.042;6.812;2023-04-03T07:21:58;7.10;96.50
31967;DHT22;18496;52.042;6.812;2023-04-03T07:24:03;7.20;96.00
31967;DHT22;18496;52.042;6.812;2023-04-03T07:26:07;7.20;95.50
31967;DHT22;18496;52.042;6.812;2023-04-03T07:28:11;7.20;95.80
31967;DHT22;18496;52.042;6.812;2023-04-03T07:30:15;7.30;95.20
31967;DHT22;18496;52.042;6.812;2023-04-03T07:32:18;7.40;96.70
31967;DHT22;18496;52.042;6.812;2023-04-03T07:34:22;7.40;94.90
31967;DHT22;18496;52.042;6.812;2023-04-03T07:36:26;7.40;95.50
31967;DHT22;18496;52.042;6.812;2023-04-03T07:38:31;7.40;93.90
31967;DHT22;18496;52.042;6.812;2023-04-03T07:40:34;7.40;94.50
31967;DHT22;18496;52.042;6.812;2023-04-03T07:42:38;7.40;94.60
31967;DHT22;18496;52.042;6.812;2023-04-03T07:44:42;7.40;94.40
31967;DHT22;18496;52.042;6.812;2023-04-03T07:46:46;7.40;92.90
31967;DHT22;18496;52.042;6.812;2023-04-03T07:48:50;7.40;93.60
31967;DHT22;18496;52.042;6.812;2023-04-03T07:50:53;7.40;93.90
31967;DHT22;18496;52.042;6.812;2023-04-03T07:52:57;7.40;93.60
31967;DHT22;18496;52.042;6.812;2023-04-03T07:55:01;7.30;92.20
31967;DHT22;18496;52.042;6.812;2023-04-03T07:57:05;7.30;93.70
31967;DHT22;18496;52.042;6.812;2023-04-03T07:59:09;7.30;92.90
31967;DHT22;18496;52.042;6.812;2023-04-03T08:01:13;7.40;93.40
31967;DHT22;18496;52.042;6.812;2023-04-03T08:03:17;7.40;93.10
31967;DHT22;18496;52.042;6.812;2023-04-03T08:05:21;7.50;92.80
31967;DHT22;18496;52.042;6.812;2023-04-03T08:07:24;7.60;91.30
31967;DHT22;18496;52.042;6.812;2023-04-03T08:09:28;7.60;92.00
31967;DHT22;18496;52.042;6.812;2023-04-03T08:11:32;7.60;91.80
31967;DHT22;18496;52.042;6.812;2023-04-03T08:13:35;7.60;91.90
31967;DHT22;18496;52.042;6.812;2023-04-03T08:15:39;7.70;91.50
31967;DHT22;18496;52.042;6.812;2023-04-03T08:17:43;7.60;91.10
31967;DHT22;18496;52.042;6.812;2023-04-03T08:19:47;7.70;91.20
31967;DHT22;18496;52.042;6.812;2023-04-03T08:21:50;7.80;90.80
31967;DHT22;18496;52.042;6.812;2023-04-03T08:23:54;7.80;90.80
31967;DHT22;18496;52.042;6.812;2023-04-03T08:25:58;7.80;90.40
31967;DHT22;18496;52.042;6.812;2023-04-03T08:28:01;7.90;90.60
31967;DHT22;18496;52.042;6.812;2023-04-03T08:30:05;8.00;91.10
31967;DHT22;18496;52.042;6.812;2023-04-03T08:32:09;8.10;91.00
31967;DHT22;18496;52.042;6.812;2023-04-03T08:34:13;8.10;90.80
31967;DHT22;18496;52.042;6.812;2023-04-03T08:36:22;8.10;88.80
31967;DHT22;18496;52.042;6.812;2023-04-03T08:38:25;8.10;88.70
31967;DHT22;18496;52.042;6.812;2023-04-03T08:40:29;8.10;88.30
31967;DHT22;18496;52.042;6.812;2023-04-03T08:44:40;8.20;90.40
31967;DHT22;18496;52.042;6.812;2023-04-03T08:49:10;8.30;89.30
31967;DHT22;18496;52.042;6.812;2023-04-03T08:51:18;8.30;85.70
31967;DHT22;18496;52.042;6.812;2023-04-03T08:53:25;8.30;86.50
31967;DHT22;18496;52.042;6.812;2023-04-03T08:55:37;8.50;86.40
31967;DHT22;18496;52.042;6.812;2023-04-03T08:57:44;8.50;85.50
31967;DHT22;18496;52.042;6.812;2023-04-03T08:59:48;8.60;85.50
31967;DHT22;18496;52.042;6.812;2023-04-03T09:01:52;8.70;86.20
31967;DHT22;18496;52.042;6.812;2023-04-03T09:03:56;8.70;85.70
31967;DHT22;18496;52.042;6.812;2023-04-03T09:06:21;8.80;84.60
31967;DHT22;18496;52.042;6.812;2023-04-03T09:10:29;8.90;82.40
31967;DHT22;18496;52.042;6.812;2023-04-03T09:12:39;8.90;82.30
31967;DHT22;18496;52.042;6.812;2023-04-03T09:16:58;9.00;80.70
31967;DHT22;18496;52.042;6.812;2023-04-03T09:21:26;9.10;80.20
31967;DHT22;18496;52.042;6.812;2023-04-03T09:23:42;9.20;82.60
31967;DHT22;18496;52.042;6.812;2023-04-03T09:25:47;9.30;81.50
31967;DHT22;18496;52.042;6.812;2023-04-03T09:27:52;9.40;83.90
31967;DHT22;18496;52.042;6.812;2023-04-03T09:29:56;9.50;80.90
31967;DHT22;18496;52.042;6.812;2023-04-03T09:32:01;9.50;78.50
31967;DHT22;18496;52.042;6.812;2023-04-03T09:39:04;9.60;79.60
31967;DHT22;18496;52.042;6.812;2023-04-03T09:41:16;9.60;78.20
31967;DHT22;18496;52.042;6.812;2023-04-03T09:43:24;9.70;74.30
31967;DHT22;18496;52.042;6.812;2023-04-03T09:45:30;9.80;75.50
31967;DHT22;18496;52.042;6.812;2023-04-03T09:47:34;9.80;70.80
31967;DHT22;18496;52.042;6.812;2023-04-03T09:49:39;9.90;75.30
31967;DHT22;18496;52.042;6.812;2023-04-03T09:51:43;9.90;72.20
31967;DHT22;18496;52.042;6.812;2023-04-03T09:53:47;9.90;73.20
31967;DHT22;18496;52.042;6.812;2023-04-03T09:55:51;10.00;70.40
31967;DHT22;18496;52.042;6.812;2023-04-03T09:57:58;10.00;73.40
31967;DHT22;18496;52.042;6.812;2023-04-03T10:00:03;10.00;68.30
31967;DHT22;18496;52.042;6.812;2023-04-03T10:02:21;10.00;68.30
31967;DHT22;18496;52.042;6.812;2023-04-03T10:04:25;10.10;75.10
31967;DHT22;18496;52.042;6.812;2023-04-03T10:06:40;10.10;69.80
31967;DHT22;18496;52.042;6.812;2023-04-03T10:08:46;10.20;71.90
31967;DHT22;18496;52.042;6.812;2023-04-03T10:11:05;10.20;69.60
31967;DHT22;18496;52.042;6.812;2023-04-03T10:13:17;10.30;72.30
31967;DHT22;18496;52.042;6.812;2023-04-03T10:15:22;10.40;73.40
31967;DHT22;18496;52.042;6.812;2023-04-03T10:19:43;10.50;71.60
31967;DHT22;18496;52.042;6.812;2023-04-03T10:21:59;10.50;69.80
31967;DHT22;18496;52.042;6.812;2023-04-03T10:24:14;10.60;74.80
31967;DHT22;18496;52.042;6.812;2023-04-03T10:28:44;10.60;75.40
31967;DHT22;18496;52.042;6.812;2023-04-03T10:30:53;10.60;69.40
31967;DHT22;18496;52.042;6.812;2023-04-03T10:33:08;10.70;71.20
31967;DHT22;18496;52.042;6.812;2023-04-03T10:37:34;10.90;69.60
31967;DHT22;18496;52.042;6.812;2023-04-03T10:39:59;11.00;71.60
31967;DHT22;18496;52.042;6.812;2023-04-03T10:42:09;11.10;71.50
31967;DHT22;18496;52.042;6.812;2023-04-03T10:46:27;11.20;67.90
31967;DHT22;18496;52.042;6.812;2023-04-03T10:57:03;11.30;69.20
31967;DHT22;18496;52.042;6.812;2023-04-03T10:59:13;11.30;69.60
31967;DHT22;18496;52.042;6.812;2023-04-03T11:01:19;11.40;69.20
31967;DHT22;18496;52.042;6.812;2023-04-03T11:03:27;11.50;68.00
31967;DHT22;18496;52.042;6.812;2023-04-03T11:05:49;11.60;67.40
31967;DHT22;18496;52.042;6.812;2023-04-03T11:07:57;11.60;66.90
31967;DHT22;18496;52.042;6.812;2023-04-03T11:10:03;11.60;67.60
31967;DHT22;18496;52.042;6.812;2023-04-03T11:12:56;11.60;67.20
31967;DHT22;18496;52.042;6.812;2023-04-03T11:14:34;11.70;68.70
31967;DHT22;18496;52.042;6.812;2023-04-03T11:16:42;11.80;66.40
31967;DHT22;18496;52.042;6.812;2023-04-03T11:18:50;11.80;68.00
31967;DHT22;18496;52.042;6.812;2023-04-03T11:21:01;11.80;66.30
31967;DHT22;18496;52.042;6.812;2023-04-03T11:23:18;11.90;67.60
31967;DHT22;18496;52.042;6.812;2023-04-03T11:25:24;11.90;67.20
31967;DHT22;18496;52.042;6.812;2023-04-03T11:27:30;12.00;65.30
31967;DHT22;18496;52.042;6.812;2023-04-03T11:29:36;12.10;66.20
31967;DHT22;18496;52.042;6.812;2023-04-03T11:31:55;12.20;64.10
31967;DHT22;18496;52.042;6.812;2023-04-03T11:36:26;12.10;63.30
31967;DHT22;18496;52.042;6.812;2023-04-03T11:38:38;12.20;68.40
31967;DHT22;18496;52.042;6.812;2023-04-03T11:40:45;12.30;68.00
31967;DHT22;18496;52.042;6.812;2023-04-03T11:42:52;12.40;68.50
31967;DHT22;18496;52.042;6.812;2023-04-03T11:47:43;12.60;66.80
31967;DHT22;18496;52.042;6.812;2023-04-03T11:51:55;12.80;68.30
31967;DHT22;18496;52.042;6.812;2023-04-03T11:58:27;12.90;67.60
31967;DHT22;18496;52.042;6.812;2023-04-03T12:02:50;13.10;64.70
31967;DHT22;18496;52.042;6.812;2023-04-03T12:07:18;13.10;65.90
31967;DHT22;18496;52.042;6.812;2023-04-03T12:09:23;13.20;64.10
31967;DHT22;18496;52.042;6.812;2023-04-03T12:11:30;13.30;66.50
31967;DHT22;18496;52.042;6.812;2023-04-03T12:13:35;13.30;62.30
31967;DHT22;18496;52.042;6.812;2023-04-03T12:17:42;13.40;67.90
31967;DHT22;18496;52.042;6.812;2023-04-03T12:19:46;13.40;63.40
31967;DHT22;18496;52.042;6.812;2023-04-03T12:26:21;13.40;66.20
31967;DHT22;18496;52.042;6.812;2023-04-03T12:28:25;13.50;64.20
31967;DHT22;18496;52.042;6.812;2023-04-03T12:30:30;13.60;66.90
31967;DHT22;18496;52.042;6.812;2023-04-03T12:32:43;13.60;68.20
31967;DHT22;18496;52.042;6.812;2023-04-03T12:35:02;13.70;64.10
31967;DHT22;18496;52.042;6.812;2023-04-03T12:37:12;13.80;64.40
31967;DHT22;18496;52.042;6.812;2023-04-03T12:41:49;13.90;64.80
31967;DHT22;18496;52.042;6.812;2023-04-03T12:44:01;14.00;64.30
31967;DHT22;18496;52.042;6.812;2023-04-03T12:48:15;14.30;65.40
31967;DHT22;18496;52.042;6.812;2023-04-03T12:52:30;14.60;64.90
31967;DHT22;18496;52.042;6.812;2023-04-03T12:54:40;14.60;63.60
31967;DHT22;18496;52.042;6.812;2023-04-03T12:56:44;14.70;61.40
31967;DHT22;18496;52.042;6.812;2023-04-03T12:58:48;14.70;64.30
31967;DHT22;18496;52.042;6.812;2023-04-03T13:00:59;14.70;63.60
31967;DHT22;18496;52.042;6.812;2023-04-03T13:03:03;14.70;63.40
31967;DHT22;18496;52.042;6.812;2023-04-03T13:05:08;14.70;60.50
31967;DHT22;18496;52.042;6.812;2023-04-03T13:07:23;14.80;62.40
31967;DHT22;18496;52.042;6.812;2023-04-03T13:09:30;14.90;63.40
31967;DHT22;18496;52.042;6.812;2023-04-03T13:11:36;15.00;62.60
31967;DHT22;18496;52.042;6.812;2023-04-03T13:13:53;14.90;62.20
31967;DHT22;18496;52.042;6.812;2023-04-03T13:15:57;14.90;60.30
31967;DHT22;18496;52.042;6.812;2023-04-03T13:18:00;15.00;68.40
31967;DHT22;18496;52.042;6.812;2023-04-03T13:20:12;15.00;66.90
31967;DHT22;18496;52.042;6.812;2023-04-03T13:24:22;14.70;66.40
31967;DHT22;18496;52.042;6.812;2023-04-03T13:26:27;14.50;63.10
31967;DHT22;18496;52.042;6.812;2023-04-03T13:28:31;14.50;66.90
31967;DHT22;18496;52.042;6.812;2023-04-03T13:30:36;14.50;64.90
31967;DHT22;18496;52.042;6.812;2023-04-03T13:32:40;14.40;69.40
31967;DHT22;18496;52.042;6.812;2023-04-03T13:34:46;14.40;64.80
31967;DHT22;18496;52.042;6.812;2023-04-03T13:39:02;14.40;65.60
31967;DHT22;18496;52.042;6.812;2023-04-03T13:43:35;14.40;64.50
31967;DHT22;18496;52.042;6.812;2023-04-03T13:45:38;14.30;65.00
31967;DHT22;18496;52.042;6.812;2023-04-03T13:47:44;14.40;63.60
31967;DHT22;18496;52.042;6.812;2023-04-03T13:50:02;14.60;68.50
31967;DHT22;18496;52.042;6.812;2023-04-03T13:56:34;15.30;66.00
31967;DHT22;18496;52.042;6.812;2023-04-03T13:58:51;15.40;61.80
31967;DHT22;18496;52.042;6.812;2023-04-03T14:03:25;15.70;66.80
31967;DHT22;18496;52.042;6.812;2023-04-03T14:05:29;15.70;62.70
31967;DHT22;18496;52.042;6.812;2023-04-03T14:07:34;15.80;63.50
31967;DHT22;18496;52.042;6.812;2023-04-03T14:09:38;15.90;61.90
31967;DHT22;18496;52.042;6.812;2023-04-03T14:11:44;15.90;63.10
31967;DHT22;18496;52.042;6.812;2023-04-03T14:13:48;16.00;62.20
31967;DHT22;18496;52.042;6.812;2023-04-03T14:15:52;16.10;62.60
31967;DHT22;18496;52.042;6.812;2023-04-03T14:17:55;16.20;59.40
31967;DHT22;18496;52.042;6.812;2023-04-03T14:20:02;16.10;60.30
31967;DHT22;18496;52.042;6.812;2023-04-03T14:22:11;16.00;61.60
31967;DHT22;18496;52.042;6.812;2023-04-03T14:24:15;16.10;60.80
31967;DHT22;18496;52.042;6.812;2023-04-03T14:26:21;16.10;63.90
31967;DHT22;18496;52.042;6.812;2023-04-03T14:28:25;16.20;59.90
31967;DHT22;18496;52.042;6.812;2023-04-03T14:30:31;16.20;62.50
31967;DHT22;18496;52.042;6.812;2023-04-03T14:32:35;16.30;59.90
31967;DHT22;18496;52.042;6.812;2023-04-03T14:34:39;16.50;62.60
31967;DHT22;18496;52.042;6.812;2023-04-03T14:36:43;16.60;63.30
31967;DHT22;18496;52.042;6.812;2023-04-03T14:38:47;16.70;66.50
31967;DHT22;18496;52.042;6.812;2023-04-03T14:40:51;16.70;61.90
31967;DHT22;18496;52.042;6.812;2023-04-03T14:42:55;16.80;62.30
31967;DHT22;18496;52.042;6.812;2023-04-03T14:45:00;16.80;58.80
31967;DHT22;18496;52.042;6.812;2023-04-03T14:47:04;16.80;61.00
31967;DHT22;18496;52.042;6.812;2023-04-03T14:49:29;16.80;58.30